createdAt,value
2023-04-07T00:01:18.045Z,65.00
2023-04-07T00:03:45.976Z,64.88
2023-04-07T00:06:14.391Z,64.83
2023-04-07T00:08:42.665Z,64.71
2023-04-07T00:11:10.682Z,64.62
2023-04-07T00:13:38.506Z,64.78
2023-04-07T00:16:06.657Z,64.83
2023-04-07T00:18:34.643Z,65.46
2023-04-07T00:21:02.533Z,65.38
2023-04-07T00:23:30.548Z,65.30
2023-04-07T00:25:58.571Z,65.16
2023-04-07T00:28:26.598Z,65.09
2023-04-07T00:30:54.487Z,65.34
2023-04-07T00:33:22.446Z,65.63
2023-04-07T00:35:50.320Z,66.33
2023-04-07T00:38:18.507Z,66.75
2023-04-07T00:40:46.384Z,66.30
2023-04-07T00:43:14.224Z,66.29
2023-04-07T00:45:42.420Z,67.63
2023-04-07T00:48:11.914Z,69.24
2023-04-07T00:50:39.861Z,68.32
2023-04-07T00:53:08.284Z,67.69
2023-04-07T00:55:36.417Z,67.43
2023-04-07T00:58:06.365Z,67.88
2023-04-07T01:00:43.690Z,67.67
2023-04-07T01:03:19.601Z,67.91
2023-04-07T01:06:01.122Z,67.91
2023-04-07T01:08:39.881Z,68.22
2023-04-07T01:11:11.268Z,68.04
2023-04-07T01:13:45.259Z,67.96
2023-04-07T01:16:21.009Z,68.22
2023-04-07T01:18:53.531Z,67.80
2023-04-07T01:21:23.649Z,68.03
2023-04-07T01:24:09.469Z,68.03
2023-04-07T01:26:38.194Z,68.67
2023-04-07T01:29:27.126Z,68.44
2023-04-07T01:31:59.638Z,68.77
2023-04-07T01:34:28.949Z,68.57
2023-04-07T01:36:58.701Z,68.55
2023-04-07T01:39:28.900Z,68.58
2023-04-07T01:41:59.145Z,68.82
2023-04-07T01:44:28.825Z,68.66
2023-04-07T01:46:57.875Z,68.77
2023-04-07T01:49:28.636Z,68.94
2023-04-07T01:51:57.056Z,68.98
2023-04-07T01:54:25.667Z,68.96
2023-04-07T01:56:53.664Z,69.01
2023-04-07T01:59:21.550Z,68.96
2023-04-07T02:01:49.793Z,69.18
2023-04-07T02:04:27.149Z,68.89
2023-04-07T02:07:00.772Z,69.15
2023-04-07T02:09:32.972Z,68.75
2023-04-07T02:12:03.467Z,68.78
2023-04-07T02:14:31.331Z,68.77
2023-04-07T02:17:01.768Z,68.71
2023-04-07T02:19:31.694Z,68.57
2023-04-07T02:22:00.528Z,68.39
2023-04-07T02:24:28.404Z,68.76
2023-04-07T02:26:56.276Z,68.53
2023-04-07T02:29:24.275Z,68.49
2023-04-07T02:31:52.452Z,68.36
2023-04-07T02:34:20.370Z,68.30
2023-04-07T02:36:48.285Z,68.09
2023-04-07T02:39:16.178Z,67.90
2023-04-07T02:41:44.189Z,67.69
2023-04-07T02:44:12.270Z,67.61
2023-04-07T02:46:40.067Z,67.57
2023-04-07T02:49:08.144Z,67.74
2023-04-07T02:51:36.057Z,67.93
2023-04-07T02:54:03.957Z,67.91
2023-04-07T02:56:32.725Z,68.15
2023-04-07T02:59:00.581Z,68.19
2023-04-07T03:01:29.333Z,68.31
2023-04-07T03:03:57.481Z,68.34
2023-04-07T03:06:25.535Z,68.09
2023-04-07T03:08:53.422Z,68.05
2023-04-07T03:11:21.335Z,68.11
2023-04-07T03:13:49.292Z,68.04
2023-04-07T03:16:17.245Z,68.15
2023-04-07T03:18:45.252Z,68.64
2023-04-07T03:21:13.202Z,68.49
2023-04-07T03:23:41.056Z,68.59
2023-04-07T03:26:08.912Z,68.77
2023-04-07T03:28:36.753Z,68.74
2023-04-07T03:31:05.127Z,68.73
2023-04-07T03:33:33.082Z,68.85
2023-04-07T03:36:00.999Z,68.92
2023-04-07T03:38:28.921Z,68.91
2023-04-07T03:40:56.895Z,69.08
2023-04-07T03:43:24.967Z,69.01
2023-04-07T03:45:55.358Z,69.05
2023-04-07T03:48:23.318Z,69.12
2023-04-07T03:50:51.328Z,69.00
2023-04-07T03:53:20.733Z,68.80
2023-04-07T03:55:49.860Z,68.81
2023-04-07T03:58:18.000Z,68.92
2023-04-07T04:00:45.911Z,69.09
2023-04-07T04:03:13.889Z,69.29
2023-04-07T04:05:42.214Z,69.41
2023-04-07T04:08:10.085Z,69.45
2023-04-07T04:10:37.969Z,69.49
2023-04-07T04:13:07.998Z,69.53
2023-04-07T04:15:35.911Z,69.72
2023-04-07T04:18:04.210Z,69.69
2023-04-07T04:20:32.108Z,69.71
2023-04-07T04:22:59.994Z,70.30
2023-04-07T04:25:28.032Z,70.40
2023-04-07T04:27:55.873Z,70.57
2023-04-07T04:30:23.992Z,70.67
2023-04-07T04:32:52.144Z,70.95
2023-04-07T04:35:20.227Z,71.04
2023-04-07T04:37:48.122Z,71.25
2023-04-07T04:40:16.452Z,71.41
2023-04-07T04:42:44.355Z,71.54
2023-04-07T04:45:12.490Z,71.64
2023-04-07T04:47:40.503Z,71.85
2023-04-07T04:50:09.183Z,71.77
2023-04-07T04:52:37.222Z,72.10
2023-04-07T04:55:05.359Z,71.98
2023-04-07T04:57:33.312Z,72.15
2023-04-07T05:00:01.272Z,72.42
2023-04-07T05:02:29.826Z,72.22
2023-04-07T05:04:57.946Z,72.69
2023-04-07T05:07:26.099Z,72.74
2023-04-07T05:09:53.959Z,72.71
2023-04-07T05:12:23.200Z,72.56
2023-04-07T05:14:51.213Z,72.23
2023-04-07T05:17:19.104Z,71.76
2023-04-07T05:19:47.024Z,71.22
2023-04-07T05:22:14.885Z,71.03
2023-04-07T05:24:42.951Z,70.61
2023-04-07T05:27:10.904Z,70.22
2023-04-07T05:29:38.810Z,70.17
2023-04-07T05:32:07.262Z,70.06
2023-04-07T05:34:35.232Z,69.70
2023-04-07T05:37:03.078Z,69.55
2023-04-07T05:39:30.966Z,69.32
2023-04-07T05:41:59.463Z,69.05
2023-04-07T05:44:27.647Z,69.16
2023-04-07T05:46:55.555Z,68.85
2023-04-07T05:49:23.494Z,68.91
2023-04-07T05:51:51.545Z,68.90
2023-04-07T05:54:19.445Z,68.82
2023-04-07T05:56:47.467Z,68.86
2023-04-07T05:59:15.433Z,69.07
2023-04-07T06:01:44.311Z,69.22
2023-04-07T06:04:12.414Z,70.41
2023-04-07T06:06:40.256Z,70.39
2023-04-07T06:09:08.365Z,70.34
2023-04-07T06:11:36.292Z,70.36
2023-04-07T06:14:04.176Z,70.15
2023-04-07T06:16:32.215Z,70.20
2023-04-07T06:19:00.061Z,70.30
2023-04-07T06:21:28.660Z,70.20
2023-04-07T06:23:56.604Z,70.71
2023-04-07T06:26:25.047Z,70.37
2023-04-07T06:28:53.821Z,70.93
2023-04-07T06:31:22.419Z,70.56
2023-04-07T06:33:50.571Z,70.36
2023-04-07T06:36:18.846Z,70.01
2023-04-07T06:38:46.920Z,69.81
2023-04-07T06:41:18.477Z,69.64
2023-04-07T06:43:48.713Z,69.51
2023-04-07T06:46:16.872Z,69.63
2023-04-07T06:48:45.040Z,69.48
2023-04-07T06:51:13.015Z,70.33
2023-04-07T06:53:41.518Z,69.51
2023-04-07T06:56:14.137Z,69.32
2023-04-07T06:58:42.046Z,69.23
2023-04-07T07:01:10.063Z,68.88
2023-04-07T07:03:38.180Z,68.47
2023-04-07T07:06:06.935Z,67.95
2023-04-07T07:08:35.246Z,67.57
2023-04-07T07:11:03.332Z,66.93
2023-04-07T07:13:31.242Z,66.56
2023-04-07T07:15:59.198Z,66.11
2023-04-07T07:18:28.486Z,65.40
2023-04-07T07:20:57.214Z,65.37
2023-04-07T07:23:25.164Z,64.84
2023-04-07T07:25:53.157Z,64.72
2023-04-07T07:28:22.972Z,64.05
2023-04-07T07:30:51.241Z,63.49
2023-04-07T07:33:19.258Z,63.13
2023-04-07T07:35:47.191Z,62.67
2023-04-07T07:38:15.172Z,62.77
2023-04-07T07:40:43.014Z,62.79
2023-04-07T07:43:10.859Z,62.66
2023-04-07T07:45:38.798Z,61.30
2023-04-07T07:48:06.779Z,61.21
2023-04-07T07:50:34.789Z,60.50
2023-04-07T07:53:02.827Z,59.30
2023-04-07T07:55:30.786Z,59.46
2023-04-07T07:57:58.881Z,58.69
2023-04-07T08:00:26.956Z,58.44
2023-04-07T08:02:55.036Z,57.88
2023-04-07T08:05:23.111Z,57.49
2023-04-07T08:07:52.767Z,57.35
2023-04-07T08:10:22.296Z,57.21
2023-04-07T08:12:50.229Z,56.97
2023-04-07T08:15:18.317Z,56.98
2023-04-07T08:17:46.341Z,56.83
2023-04-07T08:20:14.464Z,56.69
2023-04-07T08:22:42.694Z,56.63
2023-04-07T08:25:10.613Z,56.58
2023-04-07T08:27:38.447Z,56.35
2023-04-07T08:30:08.386Z,56.12
2023-04-07T08:32:46.417Z,55.84
2023-04-07T08:35:14.405Z,55.57
2023-04-07T08:37:44.990Z,55.94
2023-04-07T08:40:14.040Z,55.93
2023-04-07T08:42:44.468Z,55.50
2023-04-07T08:45:13.928Z,55.04
2023-04-07T08:47:45.386Z,54.92
2023-04-07T08:50:13.631Z,54.78
2023-04-07T08:52:45.851Z,54.61
2023-04-07T08:55:14.567Z,54.39
2023-04-07T08:57:45.981Z,53.37
2023-04-07T09:00:15.134Z,53.84
2023-04-07T09:02:46.666Z,53.79
2023-04-07T09:05:18.275Z,53.29
2023-04-07T09:07:46.268Z,52.94
2023-04-07T09:10:14.222Z,52.77
2023-04-07T09:12:42.490Z,51.72
2023-04-07T09:15:10.710Z,52.14
2023-04-07T09:17:38.705Z,52.21
2023-04-07T09:20:08.249Z,51.96
2023-04-07T09:22:41.554Z,52.54
2023-04-07T09:25:15.653Z,51.62
2023-04-07T09:28:05.434Z,53.61
2023-04-07T09:30:34.855Z,55.88
2023-04-07T09:33:03.649Z,55.89
2023-04-07T09:35:31.999Z,56.19
2023-04-07T09:38:10.422Z,56.39
2023-04-07T09:40:41.268Z,56.29
2023-04-07T09:43:17.063Z,56.29
2023-04-07T09:45:45.067Z,56.12
2023-04-07T09:48:23.191Z,56.10
2023-04-07T09:50:52.378Z,56.21
2023-04-07T09:53:24.510Z,55.85
2023-04-07T09:55:53.349Z,55.82
2023-04-07T09:58:21.889Z,56.27
2023-04-07T10:00:50.636Z,56.57
2023-04-07T10:03:19.228Z,56.12
2023-04-07T10:05:48.284Z,56.24
2023-04-07T10:08:16.653Z,56.08
2023-04-07T10:10:45.801Z,55.58
2023-04-07T10:13:14.470Z,55.45
2023-04-07T10:15:42.971Z,55.15
2023-04-07T10:18:11.260Z,54.87
2023-04-07T10:20:45.589Z,54.54
2023-04-07T10:23:30.229Z,54.45
2023-04-07T10:25:59.709Z,53.29
2023-04-07T10:28:29.970Z,53.26
2023-04-07T10:30:59.311Z,53.58
2023-04-07T10:33:53.190Z,53.86
2023-04-07T10:36:22.950Z,53.62
2023-04-07T10:39:10.747Z,53.26
2023-04-07T10:41:42.757Z,53.17
2023-04-07T10:44:32.588Z,53.48
2023-04-07T10:47:06.074Z,52.01
2023-04-07T10:49:37.267Z,51.20
2023-04-07T10:52:14.468Z,49.63
2023-04-07T10:54:42.905Z,49.15
2023-04-07T10:57:14.330Z,48.39
2023-04-07T11:00:13.291Z,46.22
2023-04-07T11:02:41.491Z,45.71
2023-04-07T11:05:10.111Z,46.87
2023-04-07T11:08:08.148Z,46.56
2023-04-07T11:10:39.780Z,44.25
2023-04-07T11:13:11.726Z,45.27
2023-04-07T11:15:41.015Z,45.07
2023-04-07T11:18:21.361Z,44.86
2023-04-07T11:20:54.752Z,45.72
2023-04-07T11:23:25.421Z,45.70
2023-04-07T11:25:55.939Z,45.91
2023-04-07T11:28:24.054Z,45.72
2023-04-07T11:30:54.140Z,46.42
2023-04-07T11:33:24.396Z,46.59
2023-04-07T11:35:55.213Z,45.50
2023-04-07T11:38:25.384Z,46.43
2023-04-07T11:40:53.398Z,46.42
2023-04-07T11:43:27.090Z,46.79
2023-04-07T11:46:18.725Z,46.99
2023-04-07T11:48:48.733Z,47.72
2023-04-07T11:51:19.686Z,48.48
2023-04-07T11:53:48.601Z,48.72
2023-04-07T11:56:19.111Z,49.12
2023-04-07T11:58:54.730Z,49.41
2023-04-07T12:01:23.635Z,49.75
2023-04-07T12:04:04.318Z,49.70
2023-04-07T12:06:39.824Z,49.44
2023-04-07T12:09:07.795Z,49.53
2023-04-07T12:11:37.417Z,49.37
2023-04-07T12:14:06.598Z,48.93
2023-04-07T12:16:40.132Z,49.36
2023-04-07T12:19:08.200Z,49.21
2023-04-07T12:21:36.098Z,48.96
2023-04-07T12:24:04.106Z,49.49
2023-04-07T12:26:32.007Z,49.48
2023-04-07T12:29:06.392Z,49.71
2023-04-07T12:31:34.643Z,49.44
2023-04-07T12:34:02.623Z,49.79
2023-04-07T12:36:30.978Z,49.78
2023-04-07T12:38:58.973Z,49.13
2023-04-07T12:41:27.302Z,49.45
2023-04-07T12:43:55.550Z,49.83
2023-04-07T12:46:23.956Z,49.73
2023-04-07T12:48:52.799Z,49.78
2023-04-07T12:51:20.995Z,50.48
2023-04-07T12:53:49.806Z,51.01
2023-04-07T12:56:17.996Z,51.59
2023-04-07T12:58:46.058Z,52.62
2023-04-07T13:01:14.011Z,52.63
2023-04-07T13:03:42.455Z,53.19
2023-04-07T13:06:12.056Z,54.28
2023-04-07T13:08:40.687Z,54.85
2023-04-07T13:11:08.741Z,55.27
2023-04-07T13:13:36.915Z,55.31
2023-04-07T13:16:04.893Z,56.04
2023-04-07T13:18:32.930Z,56.04
2023-04-07T13:23:53.876Z,56.19
2023-04-07T13:26:19.898Z,56.54
2023-04-07T13:28:49.281Z,56.14
2023-04-07T13:31:17.533Z,56.07
2023-04-07T13:33:46.858Z,56.50
2023-04-07T13:36:15.050Z,56.59
2023-04-07T13:38:43.853Z,56.45
2023-04-07T13:41:11.772Z,56.65
2023-04-07T13:43:39.837Z,56.64
2023-04-07T13:46:17.221Z,56.93
2023-04-07T13:48:53.157Z,57.04
2023-04-07T13:51:21.276Z,56.70
2023-04-07T13:53:49.183Z,56.58
2023-04-07T13:56:17.200Z,56.51
2023-04-07T13:58:45.280Z,56.62
2023-04-07T14:01:13.383Z,56.67
2023-04-07T14:03:41.444Z,56.73
2023-04-07T14:06:09.581Z,57.11
2023-04-07T14:08:37.494Z,57.65
2023-04-07T14:11:05.381Z,57.92
2023-04-07T14:13:33.587Z,58.07
2023-04-07T14:16:01.619Z,57.89
2023-04-07T14:18:29.740Z,58.54
2023-04-07T14:20:57.758Z,57.82
2023-04-07T14:23:36.633Z,57.45
2023-04-07T14:26:05.053Z,56.35
2023-04-07T14:28:33.105Z,56.35
2023-04-07T14:31:01.128Z,55.69
2023-04-07T14:33:29.065Z,56.00
2023-04-07T14:35:56.916Z,55.82
2023-04-07T14:38:26.998Z,56.12
2023-04-07T14:40:55.102Z,55.91
2023-04-07T14:43:23.017Z,55.92
2023-04-07T14:45:50.922Z,55.56
2023-04-07T14:48:18.920Z,55.38
2023-04-07T14:50:47.759Z,55.15
2023-04-07T14:53:18.567Z,54.87
2023-04-07T14:55:46.421Z,54.77
2023-04-07T14:58:14.294Z,54.69
2023-04-07T15:00:42.311Z,54.56
2023-04-07T15:03:10.800Z,53.26
2023-04-07T15:05:38.933Z,53.59
2023-04-07T15:08:06.911Z,53.22
2023-04-07T15:10:36.795Z,52.70
2023-04-07T15:13:04.927Z,53.50
2023-04-07T15:15:33.043Z,53.54
2023-04-07T15:18:00.960Z,53.68
2023-04-07T15:20:28.837Z,53.80
2023-04-07T15:22:57.144Z,53.67
2023-04-07T15:25:25.226Z,54.01
2023-04-07T15:27:53.203Z,54.19
2023-04-07T15:30:21.239Z,54.33
2023-04-07T15:33:02.177Z,54.38
2023-04-07T15:35:30.125Z,54.13
2023-04-07T15:37:58.088Z,54.45
2023-04-07T15:40:26.022Z,55.29
2023-04-07T15:42:53.985Z,56.20
2023-04-07T15:45:22.214Z,56.21
2023-04-07T15:47:50.214Z,56.80
2023-04-07T15:50:18.198Z,56.98
2023-04-07T15:52:46.610Z,57.82
2023-04-07T15:55:14.512Z,57.22
2023-04-07T15:57:42.512Z,56.88
2023-04-07T16:00:10.893Z,56.69
2023-04-07T16:02:39.530Z,56.86
2023-04-07T16:05:07.689Z,56.78
2023-04-07T16:07:35.614Z,56.98
2023-04-07T16:10:04.276Z,57.33
2023-04-07T16:12:33.846Z,57.25
2023-04-07T16:15:02.179Z,57.11
2023-04-07T16:17:30.157Z,57.76
2023-04-07T16:19:58.133Z,57.88
2023-04-07T16:22:26.606Z,58.17
2023-04-07T16:24:54.596Z,58.19
2023-04-07T16:27:22.490Z,58.40
2023-04-07T16:29:50.423Z,58.41
2023-04-07T16:32:18.275Z,58.83
2023-04-07T16:34:46.224Z,58.88
2023-04-07T16:37:14.233Z,58.94
2023-04-07T16:39:42.141Z,59.36
2023-04-07T16:42:10.010Z,59.22
2023-04-07T16:44:37.956Z,59.31
2023-04-07T16:47:05.904Z,59.29
2023-04-07T16:49:33.801Z,59.48
2023-04-07T16:52:01.798Z,59.69
2023-04-07T16:54:29.757Z,60.27
2023-04-07T16:56:57.607Z,60.35
2023-04-07T16:59:25.468Z,61.00
2023-04-07T17:01:53.339Z,61.47
2023-04-07T17:04:21.379Z,61.22
2023-04-07T17:06:49.321Z,61.40
2023-04-07T17:09:18.960Z,62.01
2023-04-07T17:11:47.014Z,62.73
2023-04-07T17:14:14.968Z,62.11
2023-04-07T17:16:42.864Z,62.48
2023-04-07T17:19:10.704Z,62.73
2023-04-07T17:21:39.030Z,62.42
2023-04-07T17:24:07.689Z,62.67
2023-04-07T17:26:35.604Z,62.65
2023-04-07T17:29:03.488Z,62.91
2023-04-07T17:31:31.403Z,62.80
2023-04-07T17:33:59.285Z,63.62
2023-04-07T17:36:27.105Z,63.23
2023-04-07T17:38:55.057Z,64.50
2023-04-07T17:41:24.080Z,66.02
2023-04-07T17:43:52.034Z,66.04
2023-04-07T17:46:20.080Z,66.10
2023-04-07T17:48:48.312Z,66.67
2023-04-07T17:51:16.813Z,66.25
2023-04-07T17:53:44.964Z,68.23
2023-04-07T17:56:13.919Z,67.73
2023-04-07T17:58:43.513Z,67.56
2023-04-07T18:01:12.340Z,67.80
2023-04-07T18:03:40.467Z,68.96
2023-04-07T18:06:09.880Z,68.86
2023-04-07T18:08:38.019Z,69.05
2023-04-07T18:11:07.193Z,68.80
2023-04-07T18:13:35.218Z,69.00
2023-04-07T18:16:03.143Z,69.30
2023-04-07T18:18:31.052Z,69.44
2023-04-07T18:20:59.168Z,70.06
2023-04-07T18:23:27.112Z,69.60
2023-04-07T18:25:54.966Z,71.28
2023-04-07T18:28:22.884Z,71.25
2023-04-07T18:30:50.766Z,71.28
2023-04-07T18:33:18.804Z,71.91
2023-04-07T18:35:46.741Z,72.83
2023-04-07T18:38:14.584Z,72.48
2023-04-07T18:40:42.525Z,72.12
2023-04-07T18:43:10.516Z,71.69
2023-04-07T18:45:38.350Z,71.60
2023-04-07T18:48:07.033Z,71.86
2023-04-07T18:50:34.958Z,71.50
2023-04-07T18:53:03.250Z,71.31
2023-04-07T18:55:31.292Z,72.41
2023-04-07T18:57:59.767Z,71.77
2023-04-07T19:00:27.940Z,72.04
2023-04-07T19:02:56.097Z,72.00
2023-04-07T19:05:25.797Z,72.85
2023-04-07T19:07:53.965Z,72.80
2023-04-07T19:10:22.123Z,72.29
2023-04-07T19:12:50.156Z,72.45
2023-04-07T19:15:18.209Z,72.31
2023-04-07T19:17:46.743Z,72.97
2023-04-07T19:20:14.764Z,72.30
2023-04-07T19:22:43.339Z,72.23
2023-04-07T19:25:11.819Z,72.21
2023-04-07T19:27:41.114Z,72.76
2023-04-07T19:30:09.521Z,73.06
2023-04-07T19:32:37.823Z,73.13
2023-04-07T19:35:06.056Z,73.59
2023-04-07T19:37:34.264Z,73.36
2023-04-07T19:40:03.559Z,73.14
2023-04-07T19:42:31.968Z,73.01
2023-04-07T19:45:02.638Z,72.67
2023-04-07T19:47:30.790Z,72.89
2023-04-07T19:49:58.921Z,72.45
2023-04-07T19:52:27.261Z,72.62
2023-04-07T19:54:55.308Z,72.64
2023-04-07T19:57:23.972Z,72.60
2023-04-07T19:59:52.284Z,72.98
2023-04-07T20:02:20.544Z,73.07
2023-04-07T20:04:48.668Z,72.64
2023-04-07T20:07:16.947Z,72.99
2023-04-07T20:09:45.222Z,72.89
2023-04-07T20:12:13.240Z,72.76
2023-04-07T20:14:41.227Z,72.74
2023-04-07T20:17:09.192Z,72.70
2023-04-07T20:19:38.169Z,73.00
2023-04-07T20:22:06.106Z,72.85
2023-04-07T20:24:37.039Z,73.70
2023-04-07T20:27:05.147Z,74.80
2023-04-07T20:29:33.187Z,73.89
2023-04-07T20:32:01.152Z,75.11
2023-04-07T20:34:29.151Z,74.35
2023-04-07T20:36:57.215Z,74.86
2023-04-07T20:39:25.139Z,74.96
2023-04-07T20:41:52.953Z,74.86
2023-04-07T20:44:21.384Z,74.54
2023-04-07T20:46:49.405Z,74.64
2023-04-07T20:49:17.477Z,74.69
2023-04-07T20:51:46.031Z,75.51
2023-04-07T20:54:14.186Z,75.37
2023-04-07T20:56:44.298Z,75.56
2023-04-07T20:59:12.378Z,76.50
2023-04-07T21:01:40.419Z,75.86
2023-04-07T21:04:08.476Z,75.76
2023-04-07T21:06:36.833Z,75.45
2023-04-07T21:09:06.986Z,76.16
2023-04-07T21:11:34.955Z,76.51
2023-04-07T21:14:03.173Z,76.81
2023-04-07T21:16:31.937Z,77.52
2023-04-07T21:18:59.899Z,76.97
2023-04-07T21:21:27.961Z,77.52
2023-04-07T21:23:55.938Z,77.64
2023-04-07T21:26:24.063Z,78.66
2023-04-07T21:28:53.540Z,77.87
2023-04-07T21:31:23.755Z,77.61
2023-04-07T21:33:52.764Z,77.84
2023-04-07T21:36:20.752Z,77.34
2023-04-07T21:38:49.893Z,78.13
2023-04-07T21:41:18.261Z,77.65
2023-04-07T21:43:46.224Z,77.53
2023-04-07T21:46:15.590Z,77.59
2023-04-07T21:48:43.816Z,77.74
2023-04-07T21:51:12.636Z,77.44
2023-04-07T21:53:41.805Z,77.70
2023-04-07T21:56:10.794Z,77.78
2023-04-07T21:58:38.763Z,77.81
2023-04-07T22:01:07.197Z,78.08
2023-04-07T22:03:35.246Z,78.20
2023-04-07T22:06:03.780Z,78.26
2023-04-07T22:08:31.828Z,77.89
2023-04-07T22:10:59.950Z,78.10
2023-04-07T22:13:27.830Z,78.62
2023-04-07T22:15:57.014Z,78.39
2023-04-07T22:18:24.998Z,79.29
2023-04-07T22:20:52.934Z,79.02
2023-04-07T22:23:20.887Z,79.36
2023-04-07T22:25:48.808Z,78.55
2023-04-07T22:28:16.823Z,78.33
2023-04-07T22:30:44.705Z,78.23
2023-04-07T22:33:12.746Z,78.17
2023-04-07T22:35:40.703Z,78.07
2023-04-07T22:38:08.745Z,78.05
2023-04-07T22:40:36.734Z,77.78
2023-04-07T22:43:04.611Z,77.58
2023-04-07T22:45:32.957Z,77.28
2023-04-07T22:48:00.865Z,76.98
2023-04-07T22:50:29.006Z,76.69
2023-04-07T22:52:57.279Z,76.55
2023-04-07T22:55:25.214Z,76.44
2023-04-07T22:57:53.182Z,76.44
2023-04-07T23:00:21.108Z,76.27
2023-04-07T23:02:49.185Z,76.26
2023-04-07T23:05:17.648Z,76.55
2023-04-07T23:07:45.777Z,76.27
2023-04-07T23:10:13.708Z,76.15
2023-04-07T23:12:41.867Z,76.05
2023-04-07T23:15:10.146Z,75.92
2023-04-07T23:17:38.144Z,75.93
2023-04-07T23:20:06.595Z,75.91
2023-04-07T23:22:34.562Z,75.87
2023-04-07T23:25:02.720Z,75.84
2023-04-07T23:27:30.701Z,75.75
2023-04-07T23:29:59.466Z,75.58
2023-04-07T23:32:27.452Z,75.50
2023-04-07T23:34:55.561Z,75.37
2023-04-07T23:37:23.507Z,75.18
2023-04-07T23:39:51.702Z,75.21
2023-04-07T23:42:19.740Z,75.06
2023-04-07T23:44:47.801Z,74.95
2023-04-07T23:47:15.754Z,74.98
2023-04-07T23:49:43.940Z,75.00
2023-04-07T23:52:11.885Z,74.96
2023-04-07T23:54:39.871Z,74.81
2023-04-07T23:57:08.072Z,74.81
2023-04-07T23:59:36.021Z,74.87
